Time;durP1;ratioP1;P1;durP2;ratioP2;P2;SDS_P1;SDS_P2;PMS_P1;PMS_P2;Temp;Humidity;BMP_temperature;BMP_pressure;BME280_temperature;BME280_humidity;BME280_pressure;Samples;Min_cycle;Max_cycle;Signal;HPM_P1;HPM_P2
2022/05/25 04:17:38;;;;;;;14.80;9.90;;;;;;;14.33;100.00;99982.69;5556046;26;140324;-88
2022/05/25 04:20:41;;;;;;;12.95;9.75;;;;;;;14.33;100.00;99984.53;5567419;26;34199;-88
2022/05/25 04:23:46;;;;;;;11.85;9.23;;;;;;;14.42;100.00;99986.50;5545869;32;33731;-88
2022/05/25 04:26:49;;;;;;;12.32;8.88;;;;;;;14.55;100.00;99986.47;5545899;32;34400;-88
2022/05/25 04:29:51;;;;;;;9.55;7.75;;;;;;;14.76;100.00;99997.44;5531792;32;34262;-88
2022/05/25 04:36:38;;;;;;;8.30;7.20;;;;;;;15.01;100.00;100005.44;3977464;26;20109;-88
2022/05/25 04:39:41;;;;;;;7.60;6.82;;;;;;;15.07;100.00;100000.50;5474047;32;32936;-88
2022/05/25 04:42:45;;;;;;;8.23;6.78;;;;;;;15.07;100.00;99997.84;5487258;32;34935;-88
2022/05/25 04:45:52;;;;;;;8.30;7.18;;;;;;;15.32;100.00;99990.62;5487744;32;33779;-88
2022/05/25 04:48:55;;;;;;;7.53;6.82;;;;;;;15.29;100.00;99990.03;5487827;32;34281;-88
2022/05/25 04:51:57;;;;;;;6.75;6.05;;;;;;;15.25;100.00;99988.53;5487142;32;33872;-86
2022/05/25 04:55:00;;;;;;;7.60;6.10;;;;;;;15.90;100.00;99980.91;5472142;32;35856;-87
2022/05/25 04:58:03;;;;;;;6.55;5.90;;;;;;;15.93;100.00;99993.22;5488990;32;33889;-87
2022/05/25 05:01:08;;;;;;;9.77;5.80;;;;;;;15.94;100.00;99995.75;5473973;32;32651;-87
2022/05/25 05:04:11;;;;;;;10.32;6.32;;;;;;;15.99;100.00;99996.25;5487370;32;34276;-87
2022/05/25 05:07:15;;;;;;;7.05;6.05;;;;;;;16.20;99.21;100000.88;5483004;32;33904;-87
2022/05/25 05:10:19;;;;;;;7.57;5.47;;;;;;;16.19;99.97;100007.19;5492226;32;33601;-87
2022/05/25 05:13:22;;;;;;;6.25;5.65;;;;;;;16.43;98.92;100006.19;5464388;32;33085;-87
2022/05/25 05:16:25;;;;;;;6.10;5.32;;;;;;;16.54;96.63;100008.00;5465724;32;32502;-87
2022/05/25 05:19:29;;;;;;;6.93;5.60;;;;;;;16.48;95.80;100008.50;5463251;32;32682;-87
2022/05/25 05:22:34;;;;;;;9.10;5.68;;;;;;;16.55;96.81;100009.72;5469126;32;34636;-87
2022/05/25 05:25:37;;;;;;;6.35;5.72;;;;;;;17.06;92.34;100015.47;5467139;32;34244;-87
2022/05/25 05:28:42;;;;;;;8.23;5.12;;;;;;;17.40;90.07;100019.84;5446865;32;33004;-86
2022/05/25 05:31:45;;;;;;;5.65;5.03;;;;;;;17.88;90.37;100023.81;5469123;32;34526;-90
2022/05/25 05:34:48;;;;;;;8.50;5.47;;;;;;;18.77;83.45;100019.66;5452527;32;33692;-90
2022/05/25 05:41:29;;;;;;;8.30;5.00;;;;;;;20.77;74.97;100039.66;5320394;30;20132;-87
2022/05/25 06:03:58;;;;;;;4.80;4.25;;;;;;;22.94;61.93;100061.84;5576317;26;20433;-87
2022/05/25 06:07:03;;;;;;;5.22;4.47;;;;;;;21.91;64.19;100067.06;5496041;32;33486;-87
2022/05/25 06:10:07;;;;;;;7.30;4.95;;;;;;;22.13;65.36;100064.81;5489333;32;33154;-86
2022/05/25 06:13:16;;;;;;;5.68;4.20;;;;;;;22.48;63.84;100065.69;5482962;32;32526;-86
2022/05/25 06:19:40;;;;;;;4.65;4.25;;;;;;;24.96;54.64;100060.38;5489814;32;34754;-90
2022/05/25 06:22:43;;;;;;;4.07;3.60;;;;;;;25.55;53.08;100063.56;5497710;32;34136;-91
2022/05/25 06:25:46;;;;;;;6.68;4.50;;;;;;;23.95;56.75;100079.84;5479568;32;32541;-87
2022/05/25 06:28:48;;;;;;;6.90;4.78;;;;;;;22.29;61.92;100068.63;5487634;32;34620;-87
2022/05/25 06:31:51;;;;;;;5.45;4.68;;;;;;;23.80;58.42;100060.72;5511183;32;34144;-87
2022/05/25 06:34:54;;;;;;;5.47;4.50;;;;;;;23.87;56.52;100061.72;5504384;32;35333;-87
2022/05/25 06:37:57;;;;;;;6.80;5.05;;;;;;;23.38;58.81;100060.72;5485742;32;33635;-86
2022/05/25 06:40:59;;;;;;;7.53;4.78;;;;;;;23.17;60.19;100063.87;5510131;32;33919;-86
2022/05/25 06:44:02;;;;;;;8.55;5.35;;;;;;;22.65;60.42;100059.53;5497793;32;32870;-87
2022/05/25 06:47:07;;;;;;;5.43;4.93;;;;;;;22.26;60.55;100061.69;5506991;32;34653;-87
2022/05/25 06:50:10;;;;;;;15.15;5.32;;;;;;;21.52;63.54;100062.03;5511376;32;34057;-86
2022/05/25 06:53:13;;;;;;;10.88;4.62;;;;;;;21.83;62.13;100058.06;5497731;32;32387;-86
2022/05/25 06:56:20;;;;;;;7.25;4.60;;;;;;;23.35;59.36;100054.81;5500261;32;32781;-87
2022/05/25 06:59:23;;;;;;;8.73;4.87;;;;;;;24.36;57.39;100051.81;5489354;32;31883;-86
2022/05/25 07:02:26;;;;;;;5.30;4.40;;;;;;;24.17;54.08;100053.91;5496828;32;34672;-86
2022/05/25 07:05:29;;;;;;;5.50;4.87;;;;;;;23.74;56.41;100043.28;5497729;32;34511;-85
2022/05/25 07:08:35;;;;;;;8.00;4.87;;;;;;;23.52;56.65;100051.09;5486344;32;32359;-85
2022/05/25 07:11:42;;;;;;;5.85;4.82;;;;;;;22.78;57.97;100046.38;5507986;32;33593;-86
2022/05/25 07:14:46;;;;;;;7.35;5.37;;;;;;;22.46;59.82;100035.28;5498738;32;32908;-88
2022/05/25 07:17:49;;;;;;;6.57;4.45;;;;;;;22.73;58.89;100044.19;5488411;32;34839;-88
2022/05/25 07:20:52;;;;;;;7.40;4.75;;;;;;;23.10;57.50;100046.63;5494099;32;33565;-89
2022/05/25 07:23:57;;;;;;;4.70;4.25;;;;;;;24.04;56.99;100051.69;5493218;32;33513;-87
2022/05/25 07:27:00;;;;;;;7.22;4.30;;;;;;;23.75;56.75;100054.97;5493035;32;32634;-87
2022/05/25 07:30:04;;;;;;;5.07;4.00;;;;;;;24.26;55.62;100056.59;5489109;32;33965;-88
2022/05/25 07:33:07;;;;;;;5.35;4.82;;;;;;;24.32;54.67;100053.19;5495632;32;33424;-88
2022/05/25 07:36:10;;;;;;;5.22;4.72;;;;;;;24.02;54.76;100040.19;5508285;32;34381;-88
2022/05/25 07:39:15;;;;;;;13.20;4.70;;;;;;;23.76;56.34;100033.16;5513088;26;33158;-89
2022/05/25 07:42:21;;;;;;;7.22;4.28;;;;;;;24.30;53.81;100041.69;5538374;26;33270;-89
2022/05/25 07:45:25;;;;;;;6.45;4.30;;;;;;;24.90;54.82;100042.09;5478959;32;32221;-88
2022/05/25 07:48:28;;;;;;;7.15;4.65;;;;;;;25.43;52.71;100034.09;5483318;32;33576;-87
2022/05/25 07:51:31;;;;;;;6.50;4.82;;;;;;;25.09;51.27;100042.66;5489748;32;33906;-89
2022/05/25 07:54:34;;;;;;;5.75;4.20;;;;;;;25.23;52.45;100039.16;5485343;32;34796;-88
2022/05/25 07:57:41;;;;;;;5.57;4.10;;;;;;;25.78;52.82;100044.50;5492475;32;34204;-88
2022/05/25 08:00:44;;;;;;;6.57;4.80;;;;;;;26.03;52.43;100044.25;5471324;32;32666;-87
2022/05/25 08:07:09;;;;;;;6.68;4.40;;;;;;;26.03;49.51;100046.09;5485163;32;32570;-91
2022/05/25 08:10:16;;;;;;;5.22;4.68;;;;;;;26.63;48.98;100049.69;5472943;32;35218;-92
2022/05/25 08:13:21;;;;;;;5.87;5.30;;;;;;;26.93;47.34;100046.06;5474223;32;32414;-92
2022/05/25 08:16:24;;;;;;;6.53;4.72;;;;;;;27.05;47.98;100049.12;5480739;32;32729;-89
2022/05/25 08:19:26;;;;;;;5.55;5.05;;;;;;;26.83;49.40;100050.94;5475599;32;33726;-89
2022/05/25 08:22:29;;;;;;;5.65;5.05;;;;;;;26.88;46.97;100049.34;5483150;32;33215;-89
2022/05/25 08:25:34;;;;;;;5.93;5.03;;;;;;;26.43;48.97;100043.97;5492595;32;32666;-89
2022/05/25 08:28:37;;;;;;;5.93;4.43;;;;;;;26.45;51.40;100038.38;5490513;32;33313;-88
2022/05/25 08:31:39;;;;;;;8.18;5.35;;;;;;;27.34;46.33;100039.12;5488894;32;33947;-88
2022/05/25 08:34:43;;;;;;;8.38;4.90;;;;;;;26.87;48.43;100034.06;5482658;32;34496;-88
2022/05/25 08:37:46;;;;;;;7.65;4.70;;;;;;;28.00;46.05;100045.34;5489150;32;32353;-89
2022/05/25 08:40:50;;;;;;;8.55;4.32;;;;;;;28.64;45.85;100034.34;5483178;32;32772;-88
2022/05/25 08:43:55;;;;;;;8.18;5.70;;;;;;;28.37;48.01;100026.91;5499709;32;34370;-88
2022/05/25 08:50:36;;;;;;;6.65;5.20;;;;;;;28.75;44.46;100039.22;2455705;30;20393;-88
2022/05/25 08:53:40;;;;;;;7.50;5.55;;;;;;;29.80;42.72;100030.75;5514110;32;32936;-87
2022/05/25 08:56:52;;;;;;;5.50;5.00;;;;;;;28.55;46.70;100036.41;5507235;32;33006;-88
2022/05/25 09:00:01;;;;;;;5.68;5.12;;;;;;;28.72;44.58;100038.81;5525251;32;34860;-87
2022/05/25 09:03:22;;;;;;;7.65;5.80;;;;;;;28.99;43.51;100039.75;5557539;26;35250;-88
2022/05/25 09:06:41;;;;;;;7.30;6.20;;;;;;;28.82;43.74;100031.06;5525596;32;34439;-88
2022/05/25 09:09:47;;;;;;;9.05;5.85;;;;;;;28.09;45.66;100027.78;5524042;32;33869;-88
2022/05/25 09:13:04;;;;;;;11.35;6.32;;;;;;;28.98;44.46;100029.88;5510038;32;33052;-87
2022/05/25 09:16:16;;;;;;;6.20;4.82;;;;;;;29.62;42.62;100028.69;5501935;32;33699;-90
2022/05/25 09:19:26;;;;;;;6.50;5.82;;;;;;;29.69;43.91;100024.06;5509444;32;32574;-87
2022/05/25 09:22:31;;;;;;;7.07;6.28;;;;;;;29.11;42.93;100028.22;5522305;32;34598;-85
2022/05/25 09:25:34;;;;;;;8.85;6.50;;;;;;;29.29;42.09;100036.66;5500157;32;32880;-85
2022/05/25 09:28:43;;;;;;;12.82;6.50;;;;;;;28.91;44.06;100035.31;5502326;32;33004;-86
2022/05/25 09:32:17;;;;;;;7.68;5.80;;;;;;;29.44;41.72;100025.53;5499484;32;33314;-86
2022/05/25 09:35:29;;;;;;;9.82;6.55;;;;;;;29.93;41.15;100025.28;5517541;32;34085;-86
2022/05/25 09:38:59;;;;;;;7.15;5.53;;;;;;;30.91;39.82;100025.38;5510664;32;32454;-86
2022/05/25 09:42:06;;;;;;;8.30;5.37;;;;;;;32.59;35.69;100029.56;5520896;32;34295;-85
2022/05/25 09:45:14;;;;;;;9.52;6.80;;;;;;;33.40;34.67;100029.25;5504284;32;33695;-86
2022/05/25 09:48:30;;;;;;;7.30;6.37;;;;;;;33.15;33.21;100030.28;5508783;32;34718;-86
2022/05/25 09:51:46;;;;;;;7.15;6.28;;;;;;;31.85;37.25;100026.59;5525815;32;34380;-86
2022/05/25 09:55:01;;;;;;;9.68;6.00;;;;;;;32.50;36.47;100026.28;5525677;32;34262;-88
2022/05/25 09:58:29;;;;;;;8.18;6.07;;;;;;;32.30;36.77;100013.63;5524143;32;34092;-87
2022/05/25 10:05:34;;;;;;;9.43;6.57;;;;;;;31.48;38.92;100021.00;5510261;30;20111;-86
2022/05/25 10:08:39;;;;;;;8.52;6.30;;;;;;;30.99;40.07;100013.31;5529448;32;33841;-87
2022/05/25 10:11:49;;;;;;;14.40;6.15;;;;;;;29.84;42.11;100018.34;5510976;32;32954;-86
2022/05/25 10:15:08;;;;;;;14.30;6.35;;;;;;;31.14;39.55;100018.50;5497855;32;33042;-86
2022/05/25 10:18:14;;;;;;;8.90;6.30;;;;;;;30.64;40.60;100020.03;5503060;32;34092;-86
2022/05/25 10:21:29;;;;;;;6.72;5.60;;;;;;;30.44;41.42;100014.63;5510463;32;34012;-86
2022/05/25 10:24:41;;;;;;;9.35;6.37;;;;;;;29.63;42.61;100020.28;5528827;32;34104;-86
2022/05/25 10:27:47;;;;;;;6.80;5.85;;;;;;;29.04;44.58;100018.12;5517080;32;33754;-86
2022/05/25 10:38:11;;;;;;;9.13;5.90;;;;;;;30.47;40.45;100014.19;5503245;32;32715;-86
2022/05/25 10:44:52;;;;;;;8.57;6.32;;;;;;;29.45;44.56;100008.06;5513390;32;34153;-85
2022/05/25 10:48:18;;;;;;;6.97;6.18;;;;;;;29.24;43.82;100008.25;5500381;32;33016;-86
2022/05/25 10:51:29;;;;;;;9.02;6.57;;;;;;;28.95;45.37;100008.44;5505645;32;32917;-86
2022/05/25 10:54:44;;;;;;;6.97;6.37;;;;;;;28.61;45.55;99999.31;5522124;32;34383;-87
2022/05/25 10:57:51;;;;;;;7.15;6.47;;;;;;;28.42;46.85;100018.12;5524273;32;32587;-86
2022/05/25 11:01:04;;;;;;;10.05;6.03;;;;;;;28.30;46.62;100006.13;5503794;32;32833;-87
2022/05/25 11:07:58;;;;;;;9.15;5.82;;;;;;;27.74;49.15;100014.13;5508313;32;20109;-88
2022/05/25 11:11:04;;;;;;;6.62;5.93;;;;;;;28.98;45.78;100008.03;5497961;32;32863;-87
2022/05/25 11:14:37;;;;;;;9.07;6.30;;;;;;;28.93;46.87;100007.81;5490353;32;33389;-87
2022/05/25 11:17:52;;;;;;;7.00;6.22;;;;;;;29.10;45.01;100011.00;5483696;32;33949;-87
2022/05/25 11:21:43;;;;;;;10.32;6.40;;;;;;;28.64;46.41;100012.53;5501670;32;34791;-87
2022/05/25 11:28:51;;;;;;;7.57;6.18;;;;;;;28.32;46.77;100023.97;3793752;30;20104;-86
2022/05/25 11:32:01;;;;;;;9.82;6.30;;;;;;;28.64;47.38;100015.25;5515778;32;33953;-87
2022/05/25 11:35:14;;;;;;;8.33;6.23;;;;;;;28.12;47.69;100021.91;5521140;32;34260;-87
2022/05/25 11:38:42;;;;;;;8.52;6.00;;;;;;;28.01;49.11;100025.25;5516712;32;33718;-87
2022/05/25 11:42:00;;;;;;;10.55;6.20;;;;;;;28.19;49.35;100030.16;5533148;32;33896;-87
2022/05/25 11:49:21;;;;;;;12.37;6.33;;;;;;;28.00;49.28;100028.16;2441056;30;20111;-88
2022/05/25 11:53:04;;;;;;;7.75;5.72;;;;;;;28.04;49.91;100026.69;5490508;32;34027;-88
2022/05/25 11:56:32;;;;;;;8.25;6.50;;;;;;;28.56;49.47;100032.66;5476917;32;33879;-87
2022/05/25 11:59:38;;;;;;;8.73;6.70;;;;;;;28.24;49.34;100021.38;5482911;32;32734;-87
2022/05/25 12:03:12;;;;;;;7.00;6.40;;;;;;;27.97;51.37;100024.75;5472015;32;32704;-87
2022/05/25 12:06:34;;;;;;;7.47;6.78;;;;;;;27.87;49.81;100026.16;5464248;32;32724;-88
2022/05/25 12:09:43;;;;;;;7.40;6.18;;;;;;;27.09;52.55;100031.38;5464781;32;33309;-88
2022/05/25 12:13:02;;;;;;;11.82;6.15;;;;;;;26.61;53.96;100027.25;5471267;32;33990;-89
2022/05/25 12:50:42;;;;;;;9.07;7.32;;;;;;;25.46;57.09;100038.31;5276328;26;20275;-87
2022/05/25 12:53:54;;;;;;;8.30;7.50;;;;;;;25.03;58.24;100047.78;5487833;32;33860;-89
2022/05/25 12:56:59;;;;;;;12.07;7.60;;;;;;;25.01;57.74;100049.84;5472390;32;32569;-89
2022/05/25 13:00:52;;;;;;;11.88;8.63;;;;;;;25.08;59.03;100043.69;5485121;32;34307;-88
2022/05/25 13:03:55;;;;;;;8.88;7.90;;;;;;;25.28;59.13;100039.47;5506577;32;35121;-88
2022/05/25 13:06:59;;;;;;;11.55;8.27;;;;;;;25.54;57.15;100034.72;5493762;32;33536;-88
2022/05/25 13:10:08;;;;;;;11.25;8.77;;;;;;;25.82;56.04;100034.97;5489663;32;32517;-87
2022/05/25 13:13:41;;;;;;;9.20;8.27;;;;;;;25.13;57.54;100035.84;5474595;32;33621;-88
2022/05/25 13:16:48;;;;;;;8.60;7.80;;;;;;;25.67;56.41;100017.78;5466410;32;34104;-89
2022/05/25 13:19:51;;;;;;;8.23;7.43;;;;;;;25.96;55.54;100025.09;5492051;32;34428;-88
2022/05/25 13:22:57;;;;;;;9.73;7.90;;;;;;;25.99;56.00;100014.91;5478246;32;32503;-88
2022/05/25 13:26:05;;;;;;;8.57;7.78;;;;;;;26.33;54.56;100019.81;5491974;32;34314;-85
2022/05/25 13:29:37;;;;;;;13.55;7.80;;;;;;;25.93;55.99;100016.50;5492726;32;34544;-86
2022/05/25 13:32:54;;;;;;;10.65;7.78;;;;;;;26.23;54.85;100027.41;5484901;32;33880;-87
2022/05/25 13:36:05;;;;;;;9.52;8.55;;;;;;;26.15;53.66;100022.03;5486478;32;34262;-89
2022/05/25 13:39:16;;;;;;;9.73;8.40;;;;;;;25.72;54.94;100039.81;5467432;32;31978;-91
2022/05/25 13:42:19;;;;;;;11.93;8.35;;;;;;;25.20;56.78;100042.25;5477196;32;32898;-87
2022/05/25 13:45:25;;;;;;;12.30;8.57;;;;;;;25.01;57.69;100049.84;5486238;32;32867;-87
2022/05/25 13:48:28;;;;;;;12.93;8.68;;;;;;;25.37;57.26;100039.38;5476627;32;32748;-86
2022/05/25 13:51:32;;;;;;;10.02;8.73;;;;;;;25.06;56.71;100043.00;5491683;32;33551;-87
2022/05/25 13:54:35;;;;;;;9.90;8.20;;;;;;;25.01;57.05;100046.28;5476858;32;33684;-87
2022/05/25 13:57:52;;;;;;;9.65;8.85;;;;;;;25.26;56.50;100046.09;5477069;32;33838;-87
2022/05/25 14:01:06;;;;;;;9.20;8.30;;;;;;;25.25;56.28;100047.94;5477719;32;33396;-87
2022/05/25 14:04:23;;;;;;;10.73;8.15;;;;;;;24.93;57.14;100054.47;5478299;32;32479;-86
2022/05/25 14:07:43;;;;;;;9.70;8.57;;;;;;;24.29;59.30;100067.09;5490900;32;34433;-86
2022/05/25 14:10:54;;;;;;;;;;;;;;;24.02;59.86;100061.88;5477892;32;32604;-87
2022/05/25 14:13:57;;;;;;;9.57;8.48;;;;;;;23.83;61.22;100068.50;5477423;32;34568;-86
2022/05/25 14:17:06;;;;;;;10.07;8.63;;;;;;;23.94;60.14;100073.56;5478075;32;32416;-87
2022/05/25 14:20:14;;;;;;;10.13;9.18;;;;;;;23.70;60.49;100077.16;5491863;32;34404;-87
2022/05/25 14:23:27;;;;;;;9.82;9.02;;;;;;;23.66;60.66;100089.31;5493005;32;33936;-88
2022/05/25 14:26:34;;;;;;;11.73;8.98;;;;;;;23.91;60.01;100089.31;5479358;32;32300;-87
2022/05/25 14:29:39;;;;;;;9.88;8.90;;;;;;;24.31;58.21;100092.16;5478120;32;32581;-87
2022/05/25 14:32:57;;;;;;;9.93;8.75;;;;;;;24.06;59.26;100095.75;5478851;32;33558;-87
2022/05/25 14:36:03;;;;;;;9.27;8.40;;;;;;;24.07;58.14;100096.59;5483046;32;33506;-89
2022/05/25 14:39:10;;;;;;;10.10;8.98;;;;;;;24.39;56.39;100099.41;5482964;32;33812;-87
2022/05/25 14:42:21;;;;;;;9.27;8.38;;;;;;;23.76;58.52;100100.84;5491312;32;32161;-87
2022/05/25 14:45:25;;;;;;;8.57;7.78;;;;;;;23.70;58.65;100106.94;5491134;32;35359;-88
2022/05/25 14:48:28;;;;;;;9.60;8.15;;;;;;;23.42;59.94;100104.53;5494820;32;33816;-87
2022/05/25 14:51:44;;;;;;;8.90;7.72;;;;;;;23.51;59.59;100099.97;5488681;32;32777;-87
2022/05/25 14:54:48;;;;;;;8.30;7.60;;;;;;;23.60;59.46;100108.97;5490620;32;32866;-87
2022/05/25 14:58:17;;;;;;;8.68;7.80;;;;;;;23.38;59.39;100114.03;5491845;32;33374;-87
2022/05/25 15:01:28;;;;;;;8.10;7.40;;;;;;;23.32;59.12;100112.00;5502870;32;33811;-87
2022/05/25 15:04:36;;;;;;;8.70;7.80;;;;;;;23.58;58.77;100109.13;5505856;32;34700;-87
2022/05/25 15:07:52;;;;;;;8.55;7.75;;;;;;;23.41;59.46;100109.13;5498717;32;35286;-87
2022/05/25 15:10:56;;;;;;;9.10;8.20;;;;;;;23.45;58.90;100127.72;5491188;32;33731;-88
2022/05/25 15:18:29;;;;;;;8.75;7.87;;;;;;;23.08;61.19;100132.53;5491701;32;33969;-87
2022/05/25 15:21:11;;;;;;;8.85;7.97;;;;;;;22.87;62.92;100134.66;5468889;32;32435;-87
2022/05/25 15:24:34;;;;;;;8.98;8.07;;;;;;;22.79;62.15;100150.84;5494294;32;34740;-87
2022/05/25 15:27:40;;;;;;;9.10;8.20;;;;;;;22.85;61.98;100142.09;5483016;32;34283;-87
